createdAt,value
2023-04-12T00:01:24.632Z,8.77
2023-04-12T00:03:51.395Z,8.73
2023-04-12T00:06:18.158Z,8.71
2023-04-12T00:08:44.777Z,8.71
2023-04-12T00:11:11.296Z,8.67
2023-04-12T00:13:37.942Z,8.60
2023-04-12T00:16:04.933Z,8.58
2023-04-12T00:18:31.830Z,8.54
2023-04-12T00:20:58.391Z,8.47
2023-04-12T00:23:25.021Z,8.49
2023-04-12T00:25:51.664Z,8.35
2023-04-12T00:28:19.713Z,8.31
2023-04-12T00:30:46.332Z,8.31
2023-04-12T00:33:12.968Z,8.29
2023-04-12T00:35:39.475Z,8.22
2023-04-12T00:38:06.252Z,8.18
2023-04-12T00:40:34.090Z,8.11
2023-04-12T00:43:02.825Z,8.10
2023-04-12T00:45:29.378Z,8.03
2023-04-12T00:47:55.967Z,8.02
2023-04-12T00:50:22.844Z,8.00
2023-04-12T00:52:50.434Z,7.88
2023-04-12T00:55:16.969Z,7.91
2023-04-12T00:57:43.518Z,7.94
2023-04-12T01:00:11.025Z,7.94
2023-04-12T01:02:37.919Z,7.91
2023-04-12T01:05:05.949Z,7.87
2023-04-12T01:07:51.738Z,7.99
2023-04-12T01:10:53.711Z,8.01
2023-04-12T01:13:34.831Z,8.00
2023-04-12T01:16:12.596Z,8.14
2023-04-12T01:18:45.505Z,8.13
2023-04-12T01:21:19.910Z,8.19
2023-04-12T01:24:08.670Z,8.22
2023-04-12T01:26:47.474Z,8.27
2023-04-12T01:29:17.086Z,8.27
2023-04-12T01:32:04.241Z,8.28
2023-04-12T01:34:33.662Z,8.36
2023-04-12T01:37:02.404Z,8.35
2023-04-12T01:39:33.751Z,8.39
2023-04-12T01:42:00.260Z,8.45
2023-04-12T01:44:26.793Z,8.50
2023-04-12T01:46:53.451Z,8.46
2023-04-12T01:49:26.346Z,8.47
2023-04-12T01:52:03.671Z,8.52
2023-04-12T01:54:37.141Z,8.53
2023-04-12T01:57:05.075Z,8.60
2023-04-12T01:59:51.484Z,8.56
2023-04-12T02:02:18.840Z,8.65
2023-04-12T02:04:45.559Z,8.66
2023-04-12T02:07:13.041Z,8.66
2023-04-12T02:09:39.935Z,8.66
2023-04-12T02:12:08.027Z,8.70
2023-04-12T02:14:34.848Z,8.75
2023-04-12T02:17:01.492Z,8.75
2023-04-12T02:19:28.226Z,8.72
2023-04-12T02:21:54.805Z,8.73
2023-04-12T02:24:21.684Z,8.71
2023-04-12T02:26:48.602Z,8.74
2023-04-12T02:29:15.641Z,8.66
2023-04-12T02:31:42.144Z,8.70
2023-04-12T02:34:08.672Z,8.67
2023-04-12T02:36:35.265Z,8.69
2023-04-12T02:39:01.869Z,8.63
2023-04-12T02:41:28.453Z,8.59
2023-04-12T02:43:55.115Z,8.61
2023-04-12T02:46:25.764Z,8.58
2023-04-12T02:48:55.102Z,8.50
2023-04-12T02:51:23.069Z,8.47
2023-04-12T02:53:50.328Z,8.46
2023-04-12T02:56:16.897Z,8.43
2023-04-12T02:58:46.406Z,8.39
2023-04-12T03:01:13.167Z,8.36
2023-04-12T03:03:42.495Z,8.33
2023-04-12T03:06:09.509Z,8.28
2023-04-12T03:08:36.162Z,8.27
2023-04-12T03:11:05.893Z,8.27
2023-04-12T03:13:32.601Z,8.25
2023-04-12T03:15:59.942Z,8.28
2023-04-12T03:18:26.908Z,8.27
2023-04-12T03:20:53.505Z,8.19
2023-04-12T03:23:20.187Z,8.09
2023-04-12T03:25:46.947Z,8.08
2023-04-12T03:28:13.595Z,8.02
2023-04-12T03:30:40.283Z,8.05
2023-04-12T03:33:06.869Z,8.00
2023-04-12T03:35:33.592Z,7.94
2023-04-12T03:38:00.373Z,7.97
2023-04-12T03:40:27.075Z,7.99
2023-04-12T03:42:53.609Z,7.95
2023-04-12T03:45:20.457Z,7.96
2023-04-12T03:47:47.407Z,8.02
2023-04-12T03:50:14.070Z,7.98
2023-04-12T03:52:40.954Z,7.96
2023-04-12T03:55:08.367Z,7.98
2023-04-12T03:57:35.301Z,7.94
2023-04-12T04:00:02.303Z,7.91
2023-04-12T04:02:28.968Z,7.87
2023-04-12T04:04:55.727Z,7.85
2023-04-12T04:07:22.563Z,7.75
2023-04-12T04:09:49.390Z,7.85
2023-04-12T04:12:16.116Z,7.82
2023-04-12T04:14:42.704Z,7.73
2023-04-12T04:17:10.571Z,7.77
2023-04-12T04:19:37.104Z,7.80
2023-04-12T04:22:03.836Z,7.79
2023-04-12T04:24:30.482Z,7.77
2023-04-12T04:26:57.028Z,7.81
2023-04-12T04:29:23.666Z,7.78
2023-04-12T04:31:50.511Z,7.88
2023-04-12T04:34:17.371Z,7.86
2023-04-12T04:36:44.083Z,7.94
2023-04-12T04:39:10.644Z,7.85
2023-04-12T04:41:37.187Z,7.84
2023-04-12T04:44:03.729Z,7.91
2023-04-12T04:46:30.574Z,7.87
2023-04-12T04:48:57.197Z,7.88
2023-04-12T04:51:23.758Z,7.95
2023-04-12T04:53:50.545Z,7.87
2023-04-12T04:56:17.060Z,8.00
2023-04-12T04:58:43.579Z,7.98
2023-04-12T05:01:10.275Z,8.06
2023-04-12T05:03:37.054Z,7.99
2023-04-12T05:06:03.898Z,8.01
2023-04-12T05:08:30.395Z,8.07
2023-04-12T05:10:57.804Z,8.10
2023-04-12T05:13:24.549Z,8.08
2023-04-12T05:15:51.187Z,8.07
2023-04-12T05:18:17.950Z,8.16
2023-04-12T05:20:44.987Z,8.20
2023-04-12T05:23:11.967Z,8.21
2023-04-12T05:25:44.165Z,8.29
2023-04-12T05:28:13.684Z,8.27
2023-04-12T05:30:40.623Z,8.34
2023-04-12T05:33:07.195Z,8.30
2023-04-12T05:35:33.787Z,8.28
2023-04-12T05:38:00.648Z,8.34
2023-04-12T05:40:27.193Z,8.33
2023-04-12T05:42:54.244Z,8.40
2023-04-12T05:45:21.020Z,8.39
2023-04-12T05:47:47.852Z,8.48
2023-04-12T05:50:14.833Z,8.53
2023-04-12T05:52:43.621Z,8.54
2023-04-12T05:55:16.493Z,8.58
2023-04-12T05:57:45.659Z,8.63
2023-04-12T06:00:12.891Z,8.61
2023-04-12T06:05:20.990Z,8.75
2023-04-12T06:07:47.754Z,8.81
2023-04-12T06:10:18.042Z,8.87
2023-04-12T06:12:45.419Z,8.88
2023-04-12T06:15:12.048Z,8.90
2023-04-12T06:17:38.797Z,8.98
2023-04-12T06:20:07.022Z,9.13
2023-04-12T06:22:33.770Z,9.21
2023-04-12T06:25:00.640Z,9.23
2023-04-12T06:27:28.336Z,9.28
2023-04-12T06:30:01.005Z,9.22
2023-04-12T06:32:27.641Z,9.25
2023-04-12T06:34:54.419Z,9.31
2023-04-12T06:37:22.447Z,9.31
2023-04-12T06:39:49.178Z,9.14
2023-04-12T06:42:16.022Z,9.20
2023-04-12T06:44:47.073Z,9.14
2023-04-12T06:47:13.695Z,9.16
2023-04-12T06:49:40.423Z,9.08
2023-04-12T06:52:07.085Z,9.15
2023-04-12T06:54:36.992Z,9.06
2023-04-12T06:57:03.849Z,9.10
2023-04-12T06:59:33.433Z,9.18
2023-04-12T07:04:42.852Z,9.36
2023-04-12T07:07:09.896Z,9.43
2023-04-12T07:09:36.475Z,9.45
2023-04-12T07:12:06.007Z,9.51
2023-04-12T07:14:32.553Z,9.45
2023-04-12T07:17:02.817Z,9.50
2023-04-12T07:19:32.654Z,9.54
2023-04-12T07:22:01.398Z,9.60
2023-04-12T07:24:27.927Z,9.61
2023-04-12T07:29:36.046Z,9.75
2023-04-12T07:32:03.539Z,9.75
2023-04-12T07:34:31.429Z,9.82
2023-04-12T07:36:58.213Z,9.78
2023-04-12T07:39:24.810Z,9.79
2023-04-12T07:41:51.354Z,9.94
2023-04-12T07:44:18.425Z,10.06
2023-04-12T07:46:47.200Z,10.28
2023-04-12T07:49:15.619Z,10.56
2023-04-12T07:51:43.316Z,10.67
2023-04-12T07:54:12.867Z,10.69
2023-04-12T07:56:39.467Z,10.75
2023-04-12T07:59:06.052Z,10.68
2023-04-12T08:01:35.534Z,10.67
2023-04-12T08:04:05.075Z,10.59
2023-04-12T08:06:33.643Z,10.64
2023-04-12T08:09:05.128Z,10.61
2023-04-12T08:11:31.725Z,10.67
2023-04-12T08:13:58.404Z,10.61
2023-04-12T08:16:27.944Z,10.64
2023-04-12T08:18:54.823Z,10.65
2023-04-12T08:21:21.364Z,10.63
2023-04-12T08:23:55.850Z,10.58
2023-04-12T08:26:25.894Z,10.58
2023-04-12T08:29:08.933Z,10.58
2023-04-12T08:31:35.600Z,10.67
2023-04-12T08:34:07.997Z,10.61
2023-04-12T08:36:34.657Z,10.63
2023-04-12T08:39:04.278Z,10.64
2023-04-12T08:41:31.121Z,10.64
2023-04-12T08:43:59.648Z,10.59
2023-04-12T08:46:26.594Z,10.56
2023-04-12T08:48:53.136Z,10.59
2023-04-12T08:51:20.995Z,10.50
2023-04-12T08:53:53.420Z,10.52
2023-04-12T08:56:22.701Z,10.52
2023-04-12T08:58:52.823Z,10.48
2023-04-12T09:01:24.986Z,10.51
2023-04-12T09:03:51.910Z,10.58
2023-04-12T09:06:21.511Z,10.52
2023-04-12T09:08:56.398Z,10.55
2023-04-12T09:11:27.815Z,10.51
2023-04-12T09:13:56.309Z,10.50
2023-04-12T09:16:36.212Z,10.53
2023-04-12T09:19:05.245Z,10.48
2023-04-12T09:21:35.618Z,10.59
2023-04-12T09:24:12.587Z,10.63
2023-04-12T09:26:40.689Z,10.51
2023-04-12T09:29:23.570Z,10.46
2023-04-12T09:32:16.198Z,10.50
2023-04-12T09:34:56.181Z,10.56
2023-04-12T09:37:23.158Z,10.63
2023-04-12T09:39:59.793Z,10.67
2023-04-12T09:42:33.713Z,10.70
2023-04-12T09:45:19.348Z,10.53
2023-04-12T09:47:46.853Z,10.67
2023-04-12T09:50:33.392Z,10.64
2023-04-12T09:53:04.175Z,10.69
2023-04-12T09:55:32.025Z,10.79
2023-04-12T09:58:02.951Z,10.73
2023-04-12T10:00:31.543Z,10.76
2023-04-12T10:03:00.701Z,10.90
2023-04-12T10:05:28.152Z,10.89
2023-04-12T10:07:55.747Z,10.95
2023-04-12T10:10:23.299Z,11.09
2023-04-12T10:12:50.416Z,11.13
2023-04-12T10:15:18.046Z,11.25
2023-04-12T10:17:45.875Z,11.34
2023-04-12T10:20:16.766Z,11.44
2023-04-12T10:22:53.845Z,11.52
2023-04-12T10:25:22.834Z,11.43
2023-04-12T10:27:50.220Z,11.53
2023-04-12T10:30:23.395Z,11.78
2023-04-12T10:33:15.630Z,12.03
2023-04-12T10:35:48.640Z,12.06
2023-04-12T10:38:15.983Z,12.10
2023-04-12T10:41:07.448Z,12.05
2023-04-12T10:43:34.118Z,11.94
2023-04-12T10:46:00.624Z,11.99
2023-04-12T10:48:39.929Z,11.86
2023-04-12T10:51:22.614Z,11.80
2023-04-12T10:53:49.912Z,11.83
2023-04-12T10:56:33.062Z,11.84
2023-04-12T10:59:04.764Z,11.73
2023-04-12T11:01:33.626Z,11.79
2023-04-12T11:04:18.846Z,11.81
2023-04-12T11:07:01.112Z,11.64
2023-04-12T11:09:29.806Z,11.76
2023-04-12T11:12:17.549Z,11.79
2023-04-12T11:14:59.476Z,11.83
2023-04-12T11:17:30.822Z,11.86
2023-04-12T11:20:00.150Z,11.84
2023-04-12T11:22:29.468Z,11.77
2023-04-12T11:25:00.646Z,11.80
2023-04-12T11:27:28.942Z,11.83
2023-04-12T11:29:57.627Z,11.82
2023-04-12T11:32:26.586Z,11.81
2023-04-12T11:34:55.418Z,11.81
2023-04-12T11:37:22.745Z,11.81
2023-04-12T11:39:55.470Z,11.84
2023-04-12T11:42:27.117Z,11.82
2023-04-12T11:44:59.779Z,11.78
2023-04-12T11:47:27.643Z,11.90
2023-04-12T11:50:00.462Z,11.87
2023-04-12T11:52:43.804Z,11.84
2023-04-12T11:55:10.548Z,11.93
2023-04-12T11:57:50.438Z,12.03
2023-04-12T12:00:17.810Z,12.13
2023-04-12T12:02:56.054Z,12.17
2023-04-12T12:05:32.293Z,12.26
2023-04-12T12:08:01.262Z,12.29
2023-04-12T12:10:43.692Z,12.35
2023-04-12T12:13:14.792Z,12.38
2023-04-12T12:15:44.877Z,12.42
2023-04-12T12:18:11.630Z,12.42
2023-04-12T12:20:43.212Z,12.52
2023-04-12T12:23:09.794Z,12.55
2023-04-12T12:25:36.570Z,12.73
2023-04-12T12:28:03.312Z,12.83
2023-04-12T12:30:30.352Z,12.82
2023-04-12T12:32:56.983Z,12.93
2023-04-12T12:35:25.916Z,12.97
2023-04-12T12:37:53.947Z,12.94
2023-04-12T12:40:28.878Z,13.00
2023-04-12T12:42:57.961Z,13.14
2023-04-12T12:45:27.334Z,13.13
2023-04-12T12:47:57.939Z,13.26
2023-04-12T12:50:30.103Z,13.48
2023-04-12T12:52:56.914Z,13.65
2023-04-12T12:55:24.508Z,13.77
2023-04-12T13:00:29.431Z,14.04
2023-04-12T13:02:58.931Z,14.26
2023-04-12T13:05:25.918Z,14.28
2023-04-12T13:07:52.581Z,14.29
2023-04-12T13:10:19.204Z,14.22
2023-04-12T13:12:45.813Z,14.11
2023-04-12T13:17:46.950Z,14.35
2023-04-12T13:20:13.921Z,14.43
2023-04-12T13:22:40.556Z,14.52
2023-04-12T13:25:07.780Z,14.39
2023-04-12T13:27:38.728Z,14.58
2023-04-12T13:30:08.675Z,14.65
2023-04-12T13:32:45.717Z,14.69
2023-04-12T13:35:13.232Z,14.91
2023-04-12T13:37:40.370Z,14.99
2023-04-12T13:40:07.596Z,14.82
2023-04-12T13:42:34.341Z,14.88
2023-04-12T13:45:00.909Z,14.97
2023-04-12T13:47:28.288Z,14.88
2023-04-12T13:49:54.824Z,14.89
2023-04-12T13:52:21.388Z,14.90
2023-04-12T13:54:47.988Z,14.91
2023-04-12T13:57:14.614Z,14.80
2023-04-12T13:59:41.171Z,14.63
2023-04-12T14:02:09.607Z,14.60
2023-04-12T14:04:36.439Z,14.52
2023-04-12T14:07:06.065Z,14.31
2023-04-12T14:09:32.891Z,14.36
2023-04-12T14:12:02.425Z,14.16
2023-04-12T14:14:29.025Z,14.15
2023-04-12T14:16:56.307Z,13.96
2023-04-12T14:19:24.073Z,13.88
2023-04-12T14:21:50.603Z,13.75
2023-04-12T14:24:18.284Z,13.68
2023-04-12T14:26:45.082Z,13.59
2023-04-12T14:29:12.205Z,13.46
2023-04-12T14:31:39.326Z,13.41
2023-04-12T14:34:06.283Z,13.38
2023-04-12T14:36:33.022Z,13.30
2023-04-12T14:38:59.636Z,13.20
2023-04-12T14:41:29.656Z,13.29
2023-04-12T14:43:56.702Z,13.45
2023-04-12T14:46:23.482Z,13.60
2023-04-12T14:48:50.095Z,13.74
2023-04-12T14:51:16.950Z,13.75
2023-04-12T14:53:43.482Z,13.82
2023-04-12T14:56:19.627Z,13.82
2023-04-12T14:58:49.271Z,13.92
2023-04-12T15:01:15.826Z,14.03
2023-04-12T15:03:42.549Z,14.20
2023-04-12T15:06:09.624Z,14.24
2023-04-12T15:08:36.419Z,14.14
2023-04-12T15:11:02.976Z,14.23
2023-04-12T15:13:34.012Z,14.20
2023-04-12T15:16:01.240Z,14.04
2023-04-12T15:18:27.826Z,13.94
2023-04-12T15:20:54.645Z,13.72
2023-04-12T15:23:24.344Z,13.66
2023-04-12T15:25:58.793Z,13.45
2023-04-12T15:28:25.383Z,13.39
2023-04-12T15:30:55.686Z,13.35
2023-04-12T15:33:31.257Z,13.27
2023-04-12T15:36:00.125Z,13.34
2023-04-12T15:38:26.879Z,13.37
2023-04-12T15:41:01.250Z,13.39
2023-04-12T15:43:28.692Z,13.45
2023-04-12T15:45:55.647Z,13.40
2023-04-12T15:48:23.896Z,13.32
2023-04-12T15:50:51.633Z,13.30
2023-04-12T15:53:23.795Z,13.34
2023-04-12T15:55:50.806Z,13.20
2023-04-12T15:58:17.378Z,13.13
2023-04-12T16:00:43.906Z,12.95
2023-04-12T16:03:10.569Z,12.86
2023-04-12T16:05:37.242Z,12.70
2023-04-12T16:08:03.825Z,12.63
2023-04-12T16:10:30.541Z,12.55
2023-04-12T16:12:57.458Z,12.47
2023-04-12T16:15:24.068Z,12.45
2023-04-12T16:17:51.034Z,12.38
2023-04-12T16:20:19.656Z,12.35
2023-04-12T16:22:46.173Z,12.26
2023-04-12T16:25:12.843Z,12.27
2023-04-12T16:27:39.428Z,12.26
2023-04-12T16:30:07.162Z,12.22
2023-04-12T16:32:33.900Z,12.18
2023-04-12T16:35:00.506Z,12.03
2023-04-12T16:37:29.006Z,12.04
2023-04-12T16:39:58.626Z,11.99
2023-04-12T16:42:25.189Z,11.95
2023-04-12T16:44:52.837Z,11.92
2023-04-12T16:47:22.399Z,11.85
2023-04-12T16:49:49.214Z,11.78
2023-04-12T16:52:15.940Z,11.75
2023-04-12T16:54:42.597Z,11.70
2023-04-12T16:57:09.260Z,11.66
2023-04-12T16:59:35.769Z,11.58
2023-04-12T17:02:02.406Z,11.50
2023-04-12T17:04:31.770Z,11.41
2023-04-12T17:06:58.780Z,11.38
2023-04-12T17:09:25.400Z,11.30
2023-04-12T17:11:53.074Z,11.21
2023-04-12T17:14:19.797Z,11.09
2023-04-12T17:16:46.645Z,11.02
2023-04-12T17:19:13.277Z,10.92
2023-04-12T17:21:41.249Z,10.82
2023-04-12T17:24:11.291Z,10.69
2023-04-12T17:26:37.898Z,10.65
2023-04-12T17:29:07.097Z,10.56
2023-04-12T17:34:06.493Z,10.34
2023-04-12T17:36:33.171Z,10.30
2023-04-12T17:39:00.884Z,10.18
2023-04-12T17:41:27.862Z,10.14
2023-04-12T17:43:54.796Z,10.11
2023-04-12T17:46:21.518Z,10.08
2023-04-12T17:48:51.100Z,9.98
2023-04-12T17:51:17.652Z,9.96
2023-04-12T17:53:47.277Z,9.90
2023-04-12T17:56:13.955Z,9.88
2023-04-12T17:58:43.141Z,9.84
2023-04-12T18:01:09.764Z,9.80
2023-04-12T18:03:36.905Z,9.75
2023-04-12T18:06:03.818Z,9.73
2023-04-12T18:08:30.317Z,9.68
2023-04-12T18:10:56.933Z,9.67
2023-04-12T18:13:23.481Z,9.63
2023-04-12T18:15:50.101Z,9.60
2023-04-12T18:18:16.893Z,9.51
2023-04-12T18:20:43.454Z,9.49
2023-04-12T18:23:10.206Z,9.45
2023-04-12T18:25:36.786Z,9.39
2023-04-12T18:28:06.804Z,9.32
2023-04-12T18:30:33.331Z,9.30
2023-04-12T18:33:03.384Z,9.28
2023-04-12T18:35:30.887Z,9.25
2023-04-12T18:37:57.456Z,9.17
2023-04-12T18:40:26.848Z,9.15
2023-04-12T18:42:53.660Z,9.11
2023-04-12T18:45:20.674Z,9.09
2023-04-12T18:47:48.550Z,9.01
2023-04-12T18:50:15.246Z,8.94
2023-04-12T18:52:41.781Z,8.91
2023-04-12T18:55:08.496Z,8.88
2023-04-12T18:57:35.257Z,8.86
2023-04-12T19:00:01.935Z,8.79
2023-04-12T19:02:28.758Z,8.76
2023-04-12T19:04:55.551Z,8.72
2023-04-12T19:07:22.141Z,8.67
2023-04-12T19:09:51.895Z,8.61
2023-04-12T19:12:21.185Z,8.56
2023-04-12T19:14:47.887Z,8.54
2023-04-12T19:17:16.539Z,8.49
2023-04-12T19:19:45.023Z,8.43
2023-04-12T19:22:11.606Z,8.36
2023-04-12T19:24:38.256Z,8.29
2023-04-12T19:27:04.832Z,8.25
2023-04-12T19:29:31.414Z,8.24
2023-04-12T19:31:58.030Z,8.17
2023-04-12T19:34:27.654Z,8.20
2023-04-12T19:36:54.180Z,8.05
2023-04-12T19:39:20.697Z,7.97
2023-04-12T19:41:47.197Z,7.88
2023-04-12T19:44:13.974Z,7.86
2023-04-12T19:46:40.562Z,7.79
2023-04-12T19:49:07.166Z,7.70
2023-04-12T19:51:33.666Z,7.69
2023-04-12T19:54:00.654Z,7.63
2023-04-12T19:56:28.169Z,7.61
2023-04-12T19:58:54.759Z,7.61
2023-04-12T20:01:21.349Z,7.62
2023-04-12T20:03:48.558Z,7.50
2023-04-12T20:06:15.258Z,7.48
2023-04-12T20:08:43.006Z,7.40
2023-04-12T20:11:09.600Z,7.40
2023-04-12T20:13:36.127Z,7.36
2023-04-12T20:16:02.924Z,7.35
2023-04-12T20:18:29.490Z,7.35
2023-04-12T20:20:56.217Z,7.34
2023-04-12T20:23:22.837Z,7.28
2023-04-12T20:25:49.396Z,7.22
2023-04-12T20:28:16.050Z,7.09
2023-04-12T20:30:45.429Z,7.05
2023-04-12T20:33:12.164Z,6.98
2023-04-12T20:35:39.223Z,6.99
2023-04-12T20:38:05.766Z,6.94
2023-04-12T20:40:32.392Z,6.75
2023-04-12T20:43:02.371Z,6.70
2023-04-12T20:45:29.287Z,6.66
2023-04-12T20:47:58.093Z,6.66
2023-04-12T20:50:26.542Z,6.60
2023-04-12T20:52:53.096Z,6.57
2023-04-12T20:55:20.884Z,6.50
2023-04-12T20:57:47.413Z,6.48
2023-04-12T21:00:14.938Z,6.47
2023-04-12T21:02:41.605Z,6.42
2023-04-12T21:05:08.458Z,6.37
2023-04-12T21:07:35.110Z,6.38
2023-04-12T21:10:01.822Z,6.29
2023-04-12T21:12:28.609Z,6.29
2023-04-12T21:14:55.146Z,6.21
2023-04-12T21:17:21.903Z,6.23
2023-04-12T21:19:48.568Z,6.22
2023-04-12T21:22:17.861Z,6.21
2023-04-12T21:24:44.394Z,6.18
2023-04-12T21:27:10.895Z,6.16
2023-04-12T21:29:37.464Z,6.17
2023-04-12T21:32:04.312Z,6.16
2023-04-12T21:34:32.103Z,6.18
2023-04-12T21:37:03.336Z,6.13
2023-04-12T21:39:30.270Z,6.10
2023-04-12T21:41:57.163Z,6.11
2023-04-12T21:44:24.620Z,6.05
2023-04-12T21:46:51.191Z,6.04
2023-04-12T21:49:17.934Z,6.08
2023-04-12T21:51:46.107Z,6.08
2023-04-12T21:54:13.111Z,6.16
2023-04-12T21:56:39.607Z,6.22
2023-04-12T21:59:07.151Z,6.25
2023-04-12T22:01:33.940Z,6.24
2023-04-12T22:04:01.043Z,6.26
2023-04-12T22:06:30.581Z,6.31
2023-04-12T22:08:57.428Z,6.27
2023-04-12T22:11:24.136Z,6.30
2023-04-12T22:13:50.778Z,6.24
2023-04-12T22:16:20.273Z,6.19
2023-04-12T22:18:46.933Z,6.16
2023-04-12T22:21:13.811Z,6.12
2023-04-12T22:23:40.685Z,6.10
2023-04-12T22:26:11.063Z,6.03
2023-04-12T22:28:38.383Z,5.93
2023-04-12T22:31:11.700Z,5.97
2023-04-12T22:33:40.307Z,5.96
2023-04-12T22:36:07.180Z,5.91
2023-04-12T22:38:35.270Z,5.93
2023-04-12T22:41:05.146Z,5.86
2023-04-12T22:43:33.267Z,5.80
2023-04-12T22:46:06.653Z,5.76
2023-04-12T22:48:36.004Z,5.75
2023-04-12T22:51:02.649Z,5.72
2023-04-12T22:53:29.456Z,5.71
2023-04-12T22:55:57.160Z,5.68
2023-04-12T22:58:24.032Z,5.66
2023-04-12T23:00:51.188Z,5.61
2023-04-12T23:03:18.959Z,5.52
2023-04-12T23:05:46.092Z,5.57
2023-04-12T23:08:16.830Z,5.57
2023-04-12T23:10:44.706Z,5.57
2023-04-12T23:13:11.616Z,5.51
2023-04-12T23:15:38.586Z,5.44
2023-04-12T23:18:05.242Z,5.46
2023-04-12T23:20:34.235Z,5.40
2023-04-12T23:23:00.968Z,5.34
2023-04-12T23:25:29.934Z,5.31
2023-04-12T23:27:56.611Z,5.30
2023-04-12T23:30:23.394Z,5.26
2023-04-12T23:32:50.386Z,5.23
2023-04-12T23:35:19.885Z,5.20
2023-04-12T23:37:49.758Z,5.20
2023-04-12T23:40:16.327Z,5.17
2023-04-12T23:42:43.668Z,5.17
2023-04-12T23:45:13.806Z,5.18
2023-04-12T23:47:43.282Z,5.25
2023-04-12T23:50:10.273Z,5.28
2023-04-12T23:52:40.024Z,5.32
2023-04-12T23:55:10.071Z,5.25
2023-04-12T23:57:38.991Z,5.31
